Time;durP1;ratioP1;P1;durP2;ratioP2;P2;SDS_P1;SDS_P2;PMS_P1;PMS_P2;Temp;Humidity;BMP_temperature;BMP_pressure;BME280_temperature;BME280_humidity;BME280_pressure;Samples;Min_cycle;Max_cycle;Signal;HPM_P1;HPM_P2
2022/10/30 00:00:24;;;;;;;198.55;54.20;;;;;;;;;;5052992;28;20079;-44
2022/10/30 00:02:49;;;;;;;200.45;52.88;;;;;;;;;;5053281;28;20031;-44
2022/10/30 00:05:15;;;;;;;163.23;51.35;;;;;;;;;;5052046;28;20018;-44
2022/10/30 00:07:41;;;;;;;180.77;52.90;;;;;;;;;;5052977;28;20044;-45
2022/10/30 00:10:06;;;;;;;167.75;52.70;;;;;;;;;;5052998;28;20329;-45
2022/10/30 00:12:32;;;;;;;185.77;52.42;;;;;;;;;;5052871;28;20025;-45
2022/10/30 00:14:57;;;;;;;208.88;53.60;;;;;;;;;;5052627;28;20021;-45
2022/10/30 00:17:22;;;;;;;204.23;54.17;;;;;;;;;;5051858;28;20032;-44
2022/10/30 00:19:48;;;;;;;214.50;55.50;;;;;;;;;;5052850;28;20044;-44
2022/10/30 00:22:13;;;;;;;238.05;54.28;;;;;;;;;;5052857;28;20021;-44
2022/10/30 00:24:38;;;;;;;265.15;57.53;;;;;;;;;;5052868;28;20494;-45
2022/10/30 00:27:04;;;;;;;254.15;53.35;;;;;;;;;;5052607;28;20028;-44
2022/10/30 00:29:29;;;;;;;218.35;56.47;;;;;;;;;;5051057;28;20036;-44
2022/10/30 00:31:54;;;;;;;238.07;57.03;;;;;;;;;;5052888;28;20017;-44
2022/10/30 00:34:19;;;;;;;236.60;55.95;;;;;;;;;;5051446;28;20487;-45
2022/10/30 00:36:45;;;;;;;253.80;56.20;;;;;;;;;;5052846;28;20017;-44
2022/10/30 00:39:10;;;;;;;195.07;56.30;;;;;;;;;;5052571;28;20250;-44
2022/10/30 00:41:38;;;;;;;228.07;57.40;;;;;;;;;;5052672;28;20025;-44
2022/10/30 00:44:23;;;;;;;167.57;54.08;;;;;;;;;;5052265;28;20082;-45
2022/10/30 00:46:49;;;;;;;177.98;52.78;;;;;;;;;;5051994;28;20044;-44
2022/10/30 00:49:15;;;;;;;212.40;53.40;;;;;;;;;;5052294;28;20476;-43
2022/10/30 00:51:45;;;;;;;180.82;51.60;;;;;;;;;;5051282;28;20250;-43
2022/10/30 00:54:11;;;;;;;225.90;50.47;;;;;;;;;;5052586;28;20104;-43
2022/10/30 00:56:36;;;;;;;193.05;51.05;;;;;;;;;;5055598;28;20174;-44
2022/10/30 00:59:05;;;;;;;171.38;50.85;;;;;;;;;;5056744;28;20048;-44
2022/10/30 01:01:32;;;;;;;166.07;48.40;;;;;;;;;;5055221;28;20017;-44
2022/10/30 01:03:59;;;;;;;168.00;49.63;;;;;;;;;;5056276;28;20020;-43
2022/10/30 01:06:25;;;;;;;153.43;46.60;;;;;;;;;;5056375;28;20021;-44
2022/10/30 01:08:51;;;;;;;193.93;48.67;;;;;;;;;;5056240;28;20048;-44
2022/10/30 01:11:16;;;;;;;169.25;46.22;;;;;;;;;;5056549;28;20028;-43
2022/10/30 01:13:43;;;;;;;118.95;44.35;;;;;;;;;;5056397;28;20021;-44
2022/10/30 01:16:26;;;;;;;135.68;42.92;;;;;;;;;;5055124;28;20428;-43
2022/10/30 01:18:52;;;;;;;145.15;44.83;;;;;;;;;;5056419;28;20032;-44
2022/10/30 01:21:29;;;;;;;106.30;43.47;;;;;;;;;;5054985;28;20139;-43
2022/10/30 01:23:58;;;;;;;115.82;40.28;;;;;;;;;;5054794;28;20032;-43
2022/10/30 01:26:35;;;;;;;114.53;40.55;;;;;;;;;;5056050;28;20021;-44
2022/10/30 01:29:19;;;;;;;109.65;38.42;;;;;;;;;;5054698;28;20457;-43
2022/10/30 01:31:47;;;;;;;113.35;38.63;;;;;;;;;;5055827;28;20031;-45
2022/10/30 01:34:17;;;;;;;114.97;40.85;;;;;;;;;;5056013;28;20028;-44
2022/10/30 01:36:50;;;;;;;151.25;40.17;;;;;;;;;;5054517;28;20017;-43
2022/10/30 01:39:31;;;;;;;140.13;42.03;;;;;;;;;;5054658;28;20025;-44
2022/10/30 01:41:57;;;;;;;160.07;42.38;;;;;;;;;;5055839;28;20095;-44
2022/10/30 01:44:25;;;;;;;176.90;43.38;;;;;;;;;;5055689;28;20025;-44
2022/10/30 01:46:50;;;;;;;122.53;42.22;;;;;;;;;;5055860;28;20114;-43
2022/10/30 01:49:29;;;;;;;120.47;40.78;;;;;;;;;;5055415;28;20077;-44
2022/10/30 01:51:54;;;;;;;170.88;44.70;;;;;;;;;;5055628;28;20025;-44
2022/10/30 01:54:38;;;;;;;144.43;43.45;;;;;;;;;;5055790;28;20017;-44
2022/10/30 01:57:12;;;;;;;160.55;44.03;;;;;;;;;;5055341;28;20102;-43
2022/10/30 01:59:44;;;;;;;121.65;41.25;;;;;;;;;;5055956;28;20044;-43
2022/10/30 02:02:10;;;;;;;120.25;41.33;;;;;;;;;;5055514;28;20036;-43
2022/10/30 02:04:36;;;;;;;120.22;41.42;;;;;;;;;;5054188;28;20376;-43
2022/10/30 02:07:01;;;;;;;114.65;43.30;;;;;;;;;;5054817;28;20028;-43
2022/10/30 02:09:27;;;;;;;126.50;42.90;;;;;;;;;;5055018;28;20029;-43
2022/10/30 02:11:53;;;;;;;133.25;43.08;;;;;;;;;;5055182;28;20090;-43
2022/10/30 02:14:22;;;;;;;119.30;42.95;;;;;;;;;;5055233;28;20044;-43
2022/10/30 02:16:48;;;;;;;107.78;41.05;;;;;;;;;;5055116;28;20065;-43
2022/10/30 02:19:14;;;;;;;113.10;41.10;;;;;;;;;;5053688;28;20126;-43
2022/10/30 02:21:40;;;;;;;106.82;40.65;;;;;;;;;;5054935;28;20445;-43
2022/10/30 02:24:05;;;;;;;91.40;38.20;;;;;;;;;;5054758;28;20436;-43
2022/10/30 02:26:30;;;;;;;100.85;39.33;;;;;;;;;;5055128;28;20200;-43
2022/10/30 02:28:56;;;;;;;111.78;40.28;;;;;;;;;;5054911;28;20086;-44
2022/10/30 02:31:21;;;;;;;107.75;40.45;;;;;;;;;;5054879;28;20479;-43
2022/10/30 02:33:47;;;;;;;108.25;38.90;;;;;;;;;;5054856;28;20024;-44
2022/10/30 02:36:15;;;;;;;117.47;40.88;;;;;;;;;;5053549;28;20057;-44
2022/10/30 02:38:41;;;;;;;132.30;42.05;;;;;;;;;;5053296;28;20021;-44
2022/10/30 02:41:06;;;;;;;141.55;42.53;;;;;;;;;;5053624;28;20024;-44
2022/10/30 02:43:31;;;;;;;118.32;42.45;;;;;;;;;;5054790;28;20024;-43
2022/10/30 02:45:56;;;;;;;108.57;42.17;;;;;;;;;;5053526;28;20016;-44
2022/10/30 02:48:22;;;;;;;105.43;40.25;;;;;;;;;;5054316;28;20053;-43
2022/10/30 02:50:47;;;;;;;127.60;42.43;;;;;;;;;;5054516;28;20040;-44
2022/10/30 02:53:12;;;;;;;104.82;42.03;;;;;;;;;;5054307;28;20325;-43
2022/10/30 02:55:38;;;;;;;110.03;40.95;;;;;;;;;;5054946;28;20031;-43
2022/10/30 02:58:03;;;;;;;109.10;41.10;;;;;;;;;;5054302;28;20021;-43
2022/10/30 03:00:28;;;;;;;107.28;40.67;;;;;;;;;;5054358;28;20067;-43
2022/10/30 03:02:56;;;;;;;111.40;41.35;;;;;;;;;;5054467;28;20036;-43
2022/10/30 03:05:22;;;;;;;113.53;41.90;;;;;;;;;;5054330;28;20036;-44
2022/10/30 03:07:47;;;;;;;127.10;40.10;;;;;;;;;;5053976;28;20472;-43
2022/10/30 03:10:13;;;;;;;122.20;39.92;;;;;;;;;;5054298;28;20021;-43
2022/10/30 03:12:38;;;;;;;129.45;40.38;;;;;;;;;;5054201;28;20074;-43
2022/10/30 03:15:04;;;;;;;113.60;41.53;;;;;;;;;;5054193;28;20463;-43
2022/10/30 03:17:29;;;;;;;111.30;38.83;;;;;;;;;;5051981;28;20162;-44
2022/10/30 03:19:54;;;;;;;151.68;41.38;;;;;;;;;;5052349;28;20017;-43
2022/10/30 03:22:20;;;;;;;144.00;41.47;;;;;;;;;;5053677;28;20025;-43
2022/10/30 03:24:45;;;;;;;131.85;41.95;;;;;;;;;;5053694;28;20024;-43
2022/10/30 03:27:10;;;;;;;114.47;41.33;;;;;;;;;;5052647;28;20021;-43
2022/10/30 03:29:36;;;;;;;126.70;43.00;;;;;;;;;;5052530;28;20446;-43
2022/10/30 03:32:01;;;;;;;116.68;41.75;;;;;;;;;;5053666;28;20086;-44
2022/10/30 03:34:26;;;;;;;134.38;41.97;;;;;;;;;;5053595;28;20017;-43
2022/10/30 03:36:52;;;;;;;131.88;42.20;;;;;;;;;;5053668;28;20021;-45
2022/10/30 03:39:17;;;;;;;112.57;43.55;;;;;;;;;;5053540;28;20029;-43
2022/10/30 03:41:42;;;;;;;117.53;41.28;;;;;;;;;;5052245;28;20028;-44
2022/10/30 03:44:08;;;;;;;114.03;41.97;;;;;;;;;;5052199;28;20021;-43
2022/10/30 03:46:34;;;;;;;101.70;38.67;;;;;;;;;;5053381;28;20482;-43
2022/10/30 03:48:59;;;;;;;104.72;41.55;;;;;;;;;;5053373;28;20057;-43
2022/10/30 03:51:25;;;;;;;114.70;42.08;;;;;;;;;;5051747;28;20028;-44
2022/10/30 03:53:50;;;;;;;101.45;41.00;;;;;;;;;;5053285;28;20021;-43
2022/10/30 03:56:15;;;;;;;105.32;39.28;;;;;;;;;;5053198;28;20013;-43
2022/10/30 03:58:41;;;;;;;104.55;40.75;;;;;;;;;;5052069;28;20031;-43
2022/10/30 04:01:06;;;;;;;97.82;38.70;;;;;;;;;;5053246;28;20021;-43
2022/10/30 04:03:31;;;;;;;100.35;38.58;;;;;;;;;;5053064;28;20039;-44
2022/10/30 04:05:57;;;;;;;109.85;39.08;;;;;;;;;;5052964;28;20031;-43
2022/10/30 04:08:22;;;;;;;100.75;40.90;;;;;;;;;;5053014;28;20380;-43
2022/10/30 04:10:47;;;;;;;100.90;39.58;;;;;;;;;;5052999;28;20017;-44
2022/10/30 04:13:14;;;;;;;98.15;38.25;;;;;;;;;;5053065;28;20021;-44
2022/10/30 04:15:39;;;;;;;101.80;40.17;;;;;;;;;;5052738;28;20393;-44
2022/10/30 04:18:05;;;;;;;87.55;36.75;;;;;;;;;;5051754;28;20021;-44
2022/10/30 04:20:30;;;;;;;106.80;38.65;;;;;;;;;;5052741;28;20017;-44
2022/10/30 04:22:56;;;;;;;92.18;36.80;;;;;;;;;;5052712;28;20435;-44
2022/10/30 04:25:22;;;;;;;94.30;39.30;;;;;;;;;;5052995;28;20033;-43
2022/10/30 04:27:48;;;;;;;92.75;35.38;;;;;;;;;;5051336;28;20044;-44
2022/10/30 04:30:13;;;;;;;91.43;37.70;;;;;;;;;;5052495;28;20025;-44
2022/10/30 04:32:46;;;;;;;76.95;33.58;;;;;;;;;;5051414;28;20051;-44
2022/10/30 04:35:11;;;;;;;89.70;35.70;;;;;;;;;;5052553;28;20195;-44
2022/10/30 04:37:36;;;;;;;78.43;36.60;;;;;;;;;;5052835;28;20092;-44
2022/10/30 04:40:02;;;;;;;90.55;35.95;;;;;;;;;;5052531;28;20242;-44
2022/10/30 04:42:28;;;;;;;89.80;37.90;;;;;;;;;;5051398;28;20078;-44
2022/10/30 04:44:53;;;;;;;88.72;36.05;;;;;;;;;;5051320;28;20094;-44
2022/10/30 04:47:18;;;;;;;82.32;35.15;;;;;;;;;;5052617;28;20456;-44
2022/10/30 04:49:44;;;;;;;88.13;36.45;;;;;;;;;;5052084;28;20546;-44
2022/10/30 04:52:09;;;;;;;89.07;36.72;;;;;;;;;;5052569;28;20044;-44
2022/10/30 04:54:34;;;;;;;83.75;34.70;;;;;;;;;;5052385;28;20021;-43
2022/10/30 04:56:59;;;;;;;77.78;33.97;;;;;;;;;;5052604;28;20487;-44
2022/10/30 04:59:25;;;;;;;77.25;32.10;;;;;;;;;;5051016;28;20024;-44
2022/10/30 05:01:50;;;;;;;81.20;34.05;;;;;;;;;;5052296;28;20024;-44
2022/10/30 05:04:15;;;;;;;81.63;33.13;;;;;;;;;;5052341;28;20091;-44
2022/10/30 05:06:41;;;;;;;72.50;32.47;;;;;;;;;;5050893;28;20040;-44
2022/10/30 05:09:06;;;;;;;77.65;33.92;;;;;;;;;;5052349;28;20313;-44
2022/10/30 05:11:31;;;;;;;74.18;31.23;;;;;;;;;;5050856;28;20059;-43
2022/10/30 05:13:56;;;;;;;69.03;31.90;;;;;;;;;;5052165;28;20106;-44
2022/10/30 05:16:22;;;;;;;70.38;30.88;;;;;;;;;;5052076;28;20021;-44
2022/10/30 05:18:47;;;;;;;69.47;29.88;;;;;;;;;;5050811;28;20025;-44
2022/10/30 05:21:12;;;;;;;64.32;29.75;;;;;;;;;;5050701;28;20033;-44
2022/10/30 05:23:38;;;;;;;57.58;28.05;;;;;;;;;;5052478;28;20100;-46
2022/10/30 05:26:03;;;;;;;62.80;28.15;;;;;;;;;;5052084;28;20112;-44
2022/10/30 05:28:28;;;;;;;67.15;30.63;;;;;;;;;;5050781;28;20033;-44
2022/10/30 05:30:54;;;;;;;63.25;28.83;;;;;;;;;;5052063;28;20077;-43
2022/10/30 05:33:19;;;;;;;64.55;30.35;;;;;;;;;;5050698;28;20025;-44
2022/10/30 05:35:44;;;;;;;63.50;28.75;;;;;;;;;;5051755;28;20070;-44
2022/10/30 05:38:10;;;;;;;76.05;32.15;;;;;;;;;;5051765;28;20024;-43
2022/10/30 05:40:36;;;;;;;64.50;28.15;;;;;;;;;;5052083;28;20025;-43
2022/10/30 05:43:01;;;;;;;68.93;29.77;;;;;;;;;;5055475;28;20078;-44
2022/10/30 05:45:26;;;;;;;76.47;33.33;;;;;;;;;;5055582;28;20039;-44
2022/10/30 05:47:56;;;;;;;64.30;30.10;;;;;;;;;;5055199;28;20036;-44
2022/10/30 05:50:21;;;;;;;64.82;28.92;;;;;;;;;;5054002;28;20033;-44
2022/10/30 05:52:46;;;;;;;65.03;29.23;;;;;;;;;;5055693;28;20464;-44
2022/10/30 05:55:12;;;;;;;70.32;30.05;;;;;;;;;;5055866;28;20021;-44
2022/10/30 05:57:37;;;;;;;67.40;27.58;;;;;;;;;;5054455;28;20021;-44
2022/10/30 06:00:03;;;;;;;62.85;28.98;;;;;;;;;;5054055;28;20113;-44
2022/10/30 06:02:28;;;;;;;65.45;27.58;;;;;;;;;;5055252;28;20020;-44
2022/10/30 06:04:54;;;;;;;56.30;28.65;;;;;;;;;;5055196;28;20024;-44
2022/10/30 06:07:19;;;;;;;63.92;29.05;;;;;;;;;;5055326;28;20071;-44
2022/10/30 06:09:44;;;;;;;67.72;28.27;;;;;;;;;;5053643;28;20032;-44
2022/10/30 06:12:10;;;;;;;55.85;25.88;;;;;;;;;;5055164;28;20025;-44
2022/10/30 06:14:35;;;;;;;57.53;26.02;;;;;;;;;;5055012;28;20087;-44
2022/10/30 06:17:00;;;;;;;56.00;26.70;;;;;;;;;;5055255;28;20025;-44
2022/10/30 06:19:25;;;;;;;58.30;27.47;;;;;;;;;;5054853;28;20028;-44
2022/10/30 06:21:51;;;;;;;63.63;27.03;;;;;;;;;;5053745;28;20759;-44
2022/10/30 06:24:16;;;;;;;60.72;29.05;;;;;;;;;;5054939;28;20238;-44
2022/10/30 06:26:41;;;;;;;67.55;31.02;;;;;;;;;;5055028;28;20388;-43
2022/10/30 06:29:07;;;;;;;56.25;26.80;;;;;;;;;;5054819;28;20037;-44
2022/10/30 06:31:32;;;;;;;61.80;28.33;;;;;;;;;;5054673;28;20013;-44
2022/10/30 06:33:57;;;;;;;55.83;27.77;;;;;;;;;;5053264;28;20017;-44
2022/10/30 06:36:23;;;;;;;69.35;31.25;;;;;;;;;;5054531;28;20025;-43
2022/10/30 06:38:48;;;;;;;65.90;29.75;;;;;;;;;;5054489;28;20629;-44
2022/10/30 06:41:13;;;;;;;72.72;32.08;;;;;;;;;;5054479;28;20032;-43
2022/10/30 06:43:39;;;;;;;62.45;28.80;;;;;;;;;;5054804;28;20056;-43
2022/10/30 06:46:04;;;;;;;67.65;28.27;;;;;;;;;;5053151;28;20067;-44
2022/10/30 06:48:29;;;;;;;69.10;29.27;;;;;;;;;;5054087;28;20391;-44
2022/10/30 06:50:58;;;;;;;68.90;29.00;;;;;;;;;;5054172;28;20025;-43
2022/10/30 06:53:24;;;;;;;74.72;30.80;;;;;;;;;;5052961;28;20250;-43
2022/10/30 06:55:56;;;;;;;65.82;29.30;;;;;;;;;;5054225;28;20083;-44
2022/10/30 06:58:21;;;;;;;81.47;39.22;;;;;;;;;;5054197;28;20031;-44
2022/10/30 07:00:47;;;;;;;108.80;48.38;;;;;;;;;;5054139;28;20422;-43
2022/10/30 07:03:12;;;;;;;72.65;32.05;;;;;;;;;;5054289;28;20032;-44
2022/10/30 07:05:37;;;;;;;60.47;28.08;;;;;;;;;;5054539;28;20025;-45
2022/10/30 07:08:03;;;;;;;63.92;28.40;;;;;;;;;;5054277;28;20066;-43
2022/10/30 07:10:28;;;;;;;71.10;27.55;;;;;;;;;;5054184;28;20021;-43
2022/10/30 07:12:54;;;;;;;68.45;27.42;;;;;;;;;;5054066;28;20027;-43
2022/10/30 07:15:19;;;;;;;66.65;29.92;;;;;;;;;;5054061;28;20017;-43
2022/10/30 07:17:55;;;;;;;62.35;27.98;;;;;;;;;;5052652;28;20482;-45
2022/10/30 07:20:20;;;;;;;57.97;25.98;;;;;;;;;;5054086;28;20025;-44
2022/10/30 07:22:45;;;;;;;60.38;25.30;;;;;;;;;;5054060;28;20017;-44
2022/10/30 07:25:11;;;;;;;63.63;28.33;;;;;;;;;;5053813;28;20021;-44
2022/10/30 07:27:46;;;;;;;67.40;27.80;;;;;;;;;;5053787;28;20049;-44
2022/10/30 07:30:12;;;;;;;65.25;26.52;;;;;;;;;;5052191;28;20498;-45
2022/10/30 07:32:37;;;;;;;82.53;36.22;;;;;;;;;;5052483;28;20049;-44
2022/10/30 07:35:03;;;;;;;82.97;34.30;;;;;;;;;;5053704;28;20070;-44
2022/10/30 07:37:29;;;;;;;75.32;29.65;;;;;;;;;;5053682;28;20083;-44
2022/10/30 07:39:54;;;;;;;68.85;28.10;;;;;;;;;;5053563;28;20025;-44
2022/10/30 07:42:19;;;;;;;60.72;27.73;;;;;;;;;;5052197;28;20059;-45
2022/10/30 07:44:44;;;;;;;70.85;31.45;;;;;;;;;;5053296;28;20067;-44
2022/10/30 07:47:10;;;;;;;87.15;41.08;;;;;;;;;;5052198;28;20071;-44
2022/10/30 07:49:35;;;;;;;74.32;34.00;;;;;;;;;;5053491;28;20040;-44
2022/10/30 07:52:02;;;;;;;61.72;27.95;;;;;;;;;;5051914;28;20416;-44
2022/10/30 07:54:27;;;;;;;66.25;29.15;;;;;;;;;;5053027;28;20013;-43
2022/10/30 07:56:52;;;;;;;66.75;27.38;;;;;;;;;;5052056;28;20028;-44
2022/10/30 07:59:17;;;;;;;61.47;25.73;;;;;;;;;;5053236;28;20563;-44
2022/10/30 08:01:43;;;;;;;62.28;27.15;;;;;;;;;;5053007;28;20070;-44
2022/10/30 08:04:10;;;;;;;59.15;25.98;;;;;;;;;;5051357;28;20025;-44
2022/10/30 08:06:35;;;;;;;70.30;29.10;;;;;;;;;;5053082;28;20100;-44
2022/10/30 08:09:00;;;;;;;63.35;26.92;;;;;;;;;;5052993;28;20196;-43
2022/10/30 08:11:26;;;;;;;57.55;27.23;;;;;;;;;;5053090;28;20032;-43
2022/10/30 08:13:51;;;;;;;65.15;26.88;;;;;;;;;;5052824;28;20064;-44
2022/10/30 08:16:17;;;;;;;51.30;24.73;;;;;;;;;;5048098;28;20032;-44
2022/10/30 08:18:42;;;;;;;56.28;25.88;;;;;;;;;;5046562;28;20044;-44
2022/10/30 08:21:08;;;;;;;60.45;26.25;;;;;;;;;;5052477;28;20025;-44
2022/10/30 08:23:34;;;;;;;56.83;25.33;;;;;;;;;;5048903;28;20116;-44
2022/10/30 08:25:59;;;;;;;198.18;89.85;;;;;;;;;;5048825;28;20024;-44
2022/10/30 08:28:25;;;;;;;93.28;41.75;;;;;;;;;;5051202;28;20033;-45
2022/10/30 08:30:50;;;;;;;66.95;28.73;;;;;;;;;;5052515;28;20188;-44
2022/10/30 08:33:16;;;;;;;53.85;22.08;;;;;;;;;;5052450;28;20457;-44
2022/10/30 08:35:48;;;;;;;89.13;35.50;;;;;;;;;;5052624;28;20104;-43
2022/10/30 08:38:13;;;;;;;198.55;76.43;;;;;;;;;;5047766;28;20120;-44
2022/10/30 08:40:39;;;;;;;58.67;26.13;;;;;;;;;;5050956;28;20108;-44
2022/10/30 08:43:04;;;;;;;70.28;28.75;;;;;;;;;;5052147;28;20100;-44
2022/10/30 08:45:29;;;;;;;118.35;45.17;;;;;;;;;;5052224;28;20100;-43
2022/10/30 08:47:56;;;;;;;74.93;31.33;;;;;;;;;;5052266;28;20123;-44
2022/10/30 08:50:21;;;;;;;59.33;26.15;;;;;;;;;;5052336;28;20029;-44
2022/10/30 08:52:46;;;;;;;55.67;26.45;;;;;;;;;;5052284;28;20051;-43
2022/10/30 08:55:12;;;;;;;90.45;28.33;;;;;;;;;;5052189;28;20487;-44
2022/10/30 08:57:37;;;;;;;71.90;29.70;;;;;;;;;;5050692;28;20027;-44
2022/10/30 09:00:06;;;;;;;74.00;26.48;;;;;;;;;;5049361;28;20032;-45
2022/10/30 09:02:31;;;;;;;64.03;27.08;;;;;;;;;;5052336;28;20044;-42
2022/10/30 09:04:57;;;;;;;63.83;27.38;;;;;;;;;;5051226;28;20487;-44
2022/10/30 09:07:22;;;;;;;67.68;27.15;;;;;;;;;;5052221;28;20079;-43
2022/10/30 09:09:47;;;;;;;58.83;26.30;;;;;;;;;;5052084;28;20036;-44
2022/10/30 09:12:12;;;;;;;59.92;25.45;;;;;;;;;;5052633;28;20066;-44
2022/10/30 09:14:38;;;;;;;62.17;26.47;;;;;;;;;;5052377;28;20028;-44
2022/10/30 09:17:03;;;;;;;61.03;25.10;;;;;;;;;;5053265;28;20352;-44
2022/10/30 09:19:28;;;;;;;56.83;26.17;;;;;;;;;;5056144;28;20021;-44
2022/10/30 09:21:54;;;;;;;61.10;27.30;;;;;;;;;;5054839;28;20242;-46
2022/10/30 09:24:19;;;;;;;57.95;25.23;;;;;;;;;;5052556;28;20103;-44
2022/10/30 09:26:44;;;;;;;75.88;27.40;;;;;;;;;;5053901;28;20021;-45
2022/10/30 09:29:10;;;;;;;59.03;27.67;;;;;;;;;;5053816;28;20140;-44
2022/10/30 09:31:35;;;;;;;56.78;25.70;;;;;;;;;;5054154;28;20039;-45
2022/10/30 09:34:00;;;;;;;68.10;26.75;;;;;;;;;;5054275;28;20017;-46
2022/10/30 09:36:26;;;;;;;62.83;27.35;;;;;;;;;;5054432;28;20312;-45
2022/10/30 09:38:54;;;;;;;54.25;25.77;;;;;;;;;;5055667;28;20067;-44
2022/10/30 09:41:25;;;;;;;59.15;25.20;;;;;;;;;;5055716;28;20021;-44
2022/10/30 09:44:09;;;;;;;57.50;25.60;;;;;;;;;;5055809;28;20025;-44
2022/10/30 09:46:40;;;;;;;53.50;24.17;;;;;;;;;;5055717;28;20016;-43
2022/10/30 09:49:28;;;;;;;56.63;24.35;;;;;;;;;;5055777;28;20099;-44
2022/10/30 09:52:19;;;;;;;51.85;24.33;;;;;;;;;;5055202;28;20472;-43
2022/10/30 09:54:53;;;;;;;61.30;27.85;;;;;;;;;;5055540;28;20078;-44
2022/10/30 09:57:29;;;;;;;51.53;25.13;;;;;;;;;;5055599;28;20468;-44
2022/10/30 10:00:01;;;;;;;54.33;25.20;;;;;;;;;;5053964;28;20021;-44
2022/10/30 10:02:35;;;;;;;53.13;23.75;;;;;;;;;;5055028;28;20021;-44
2022/10/30 10:05:04;;;;;;;56.92;25.02;;;;;;;;;;5055536;28;20198;-44
2022/10/30 10:07:29;;;;;;;;;;;;;;;;;;5054499;28;20048;-45
2022/10/30 10:09:58;;;;;;;54.20;23.23;;;;;;;;;;5054154;28;19913;-45
2022/10/30 10:12:24;;;;;;;;;;;;;;;;;;5055657;28;20108;-45
2022/10/30 10:14:50;;;;;;;49.93;22.47;;;;;;;;;;5054905;28;20450;-45
2022/10/30 10:17:27;;;;;;;52.60;23.60;;;;;;;;;;5055037;28;20017;-44
2022/10/30 10:19:58;;;;;;;55.15;24.60;;;;;;;;;;5055194;28;20094;-44
2022/10/30 10:22:25;;;;;;;53.97;24.77;;;;;;;;;;5053568;28;20115;-45
2022/10/30 10:24:51;;;;;;;52.83;24.05;;;;;;;;;;5055205;28;20468;-44
2022/10/30 10:27:52;;;;;;;54.55;24.10;;;;;;;;;;5054258;28;20096;-45
2022/10/30 10:30:21;;;;;;;57.15;24.33;;;;;;;;;;5052308;28;20029;-44
2022/10/30 10:33:05;;;;;;;48.97;23.38;;;;;;;;;;5054260;28;20060;-44
2022/10/30 10:36:09;;;;;;;53.25;24.17;;;;;;;;;;5054610;28;20074;-44
2022/10/30 10:39:01;;;;;;;58.63;26.25;;;;;;;;;;5052100;28;20107;-44
2022/10/30 10:41:31;;;;;;;48.38;23.52;;;;;;;;;;5049284;28;20041;-44
2022/10/30 10:44:11;;;;;;;54.72;24.70;;;;;;;;;;5053520;28;20033;-44
2022/10/30 10:46:48;;;;;;;52.17;22.65;;;;;;;;;;5053239;28;20074;-45
2022/10/30 10:49:32;;;;;;;51.65;23.60;;;;;;;;;;5052924;28;20052;-44
2022/10/30 10:52:18;;;;;;;44.13;22.42;;;;;;;;;;5054490;28;20024;-45
2022/10/30 10:54:52;;;;;;;45.15;20.60;;;;;;;;;;5054159;28;20063;-44
2022/10/30 10:57:24;;;;;;;42.38;22.15;;;;;;;;;;5054440;28;20033;-44
2022/10/30 10:59:52;;;;;;;42.08;21.50;;;;;;;;;;5054397;28;20088;-45
2022/10/30 11:02:28;;;;;;;48.90;22.83;;;;;;;;;;5054205;28;20361;-44
2022/10/30 11:04:58;;;;;;;43.42;20.52;;;;;;;;;;5053912;28;20033;-45
2022/10/30 11:07:23;;;;;;;;;;;;;;;;;;5054452;28;20025;-45
2022/10/30 11:09:52;;;;;;;48.83;21.80;;;;;;;;;;5054166;28;19913;-44
2022/10/30 11:12:17;;;;;;;;;;;;;;;;;;5054500;28;20029;-44
2022/10/30 11:14:42;;;;;;;54.83;23.73;;;;;;;;;;5053874;28;19911;-45
2022/10/30 11:17:14;;;;;;;52.08;22.42;;;;;;;;;;5054013;28;20017;-44
2022/10/30 11:19:39;;;;;;;42.33;21.50;;;;;;;;;;5053681;28;20027;-45
2022/10/30 11:22:13;;;;;;;48.22;23.50;;;;;;;;;;5053874;28;20020;-44
2022/10/30 11:24:39;;;;;;;51.17;24.23;;;;;;;;;;5035875;28;20028;-44
2022/10/30 11:27:22;;;;;;;43.15;21.55;;;;;;;;;;5053798;28;20013;-44
2022/10/30 11:29:52;;;;;;;40.65;20.88;;;;;;;;;;5053447;28;20033;-45
2022/10/30 11:32:21;;;;;;;52.17;22.95;;;;;;;;;;5053748;28;20029;-44
2022/10/30 11:34:46;;;;;;;;;;;;;;;;;;5054062;28;20131;-44
2022/10/30 11:37:28;;;;;;;49.27;21.87;;;;;;;;;;5053792;28;19949;-44
2022/10/30 11:40:00;;;;;;;48.38;22.27;;;;;;;;;;5052599;28;20353;-45
2022/10/30 11:42:25;;;;;;;51.78;23.63;;;;;;;;;;5053194;28;20024;-44
2022/10/30 11:44:51;;;;;;;46.70;21.77;;;;;;;;;;5053587;28;20089;-44
2022/10/30 11:47:20;;;;;;;46.80;23.33;;;;;;;;;;5053559;28;20052;-45
2022/10/30 11:49:45;;;;;;;;;;;;;;;;;;5053433;28;20049;-45
2022/10/30 11:52:12;;;;;;;49.50;21.33;;;;;;;;;;5053172;28;20445;-44
2022/10/30 11:54:40;;;;;;;48.25;22.48;;;;;;;;;;5053065;28;20491;-45
2022/10/30 11:57:13;;;;;;;51.13;22.70;;;;;;;;;;5053041;28;20025;-45
2022/10/30 11:59:43;;;;;;;57.15;26.33;;;;;;;;;;5053220;28;20017;-45
2022/10/30 12:02:20;;;;;;;46.72;23.65;;;;;;;;;;5053241;28;20115;-44
2022/10/30 12:04:45;;;;;;;49.25;23.23;;;;;;;;;;5052995;28;20029;-44
2022/10/30 12:07:26;;;;;;;49.53;23.30;;;;;;;;;;5052904;28;20029;-44
2022/10/30 12:09:51;;;;;;;52.83;24.60;;;;;;;;;;5053074;28;20392;-45
2022/10/30 12:12:38;;;;;;;47.72;22.27;;;;;;;;;;5053029;28;20017;-44
2022/10/30 12:15:29;;;;;;;43.38;23.00;;;;;;;;;;5052770;28;20109;-44
2022/10/30 12:17:58;;;;;;;47.15;22.70;;;;;;;;;;5052479;28;20094;-44
2022/10/30 12:20:24;;;;;;;44.75;21.55;;;;;;;;;;5053293;28;20021;-45
2022/10/30 12:22:50;;;;;;;48.17;22.42;;;;;;;;;;5052905;28;20054;-44
2022/10/30 12:25:27;;;;;;;46.72;22.77;;;;;;;;;;5052760;28;20028;-44
2022/10/30 12:27:59;;;;;;;51.90;23.17;;;;;;;;;;5052626;28;20107;-45
2022/10/30 12:30:25;;;;;;;55.92;23.77;;;;;;;;;;5052412;28;20017;-45
2022/10/30 12:32:50;;;;;;;45.22;21.02;;;;;;;;;;5052705;28;20468;-44
2022/10/30 12:35:21;;;;;;;54.85;26.25;;;;;;;;;;5052662;28;20089;-44
2022/10/30 12:37:48;;;;;;;43.00;20.90;;;;;;;;;;5052672;28;20017;-43
2022/10/30 12:40:23;;;;;;;48.53;24.67;;;;;;;;;;5052572;28;20056;-46
2022/10/30 12:42:57;;;;;;;52.05;23.25;;;;;;;;;;5052376;28;20025;-44
2022/10/30 12:45:26;;;;;;;51.70;23.52;;;;;;;;;;5052722;28;20021;-44
2022/10/30 12:48:04;;;;;;;52.30;24.13;;;;;;;;;;5052559;28;20040;-43
2022/10/30 12:50:36;;;;;;;49.28;23.25;;;;;;;;;;5054912;28;20609;-44
2022/10/30 12:53:04;;;;;;;47.85;22.58;;;;;;;;;;5059056;28;20067;-44
2022/10/30 12:55:33;;;;;;;47.15;22.85;;;;;;;;;;5058910;28;20030;-44
2022/10/30 12:57:58;;;;;;;47.92;22.70;;;;;;;;;;5059167;28;20025;-42
2022/10/30 13:00:25;;;;;;;51.30;24.17;;;;;;;;;;5059052;28;20028;-43
2022/10/30 13:03:04;;;;;;;52.83;23.65;;;;;;;;;;5058810;28;20025;-43
2022/10/30 13:05:38;;;;;;;52.20;24.15;;;;;;;;;;5059036;28;20028;-44
2022/10/30 13:08:18;;;;;;;47.95;24.10;;;;;;;;;;5059061;28;20021;-44
2022/10/30 13:11:02;;;;;;;55.10;25.27;;;;;;;;;;5059072;28;20032;-44
2022/10/30 13:13:39;;;;;;;56.97;24.02;;;;;;;;;;5058815;28;20025;-44
2022/10/30 13:16:20;;;;;;;56.90;26.33;;;;;;;;;;5058693;28;20420;-44
2022/10/30 13:18:45;;;;;;;53.60;22.77;;;;;;;;;;5059009;28;20021;-44
2022/10/30 13:21:10;;;;;;;57.38;26.65;;;;;;;;;;5058831;28;20376;-44
2022/10/30 13:23:36;;;;;;;55.08;27.85;;;;;;;;;;5059059;28;20023;-44
2022/10/30 13:26:12;;;;;;;48.92;22.75;;;;;;;;;;5058823;28;20028;-44
2022/10/30 13:28:51;;;;;;;45.65;21.95;;;;;;;;;;5058397;28;20037;-45
2022/10/30 13:31:20;;;;;;;46.55;23.27;;;;;;;;;;5057722;28;20029;-44
2022/10/30 13:33:54;;;;;;;46.40;20.85;;;;;;;;;;5058851;28;20079;-43
2022/10/30 13:36:19;;;;;;;54.80;26.58;;;;;;;;;;5058998;28;20040;-43
2022/10/30 13:38:51;;;;;;;50.70;23.15;;;;;;;;;;5057419;28;20017;-43
2022/10/30 13:41:35;;;;;;;53.83;23.52;;;;;;;;;;5058487;28;20043;-44
2022/10/30 13:44:12;;;;;;;46.88;22.45;;;;;;;;;;5058661;28;20021;-43
2022/10/30 13:46:43;;;;;;;44.92;22.35;;;;;;;;;;5058953;28;20107;-44
2022/10/30 13:49:41;;;;;;;42.33;21.73;;;;;;;;;;5058428;28;20064;-43
2022/10/30 13:52:11;;;;;;;46.42;21.85;;;;;;;;;;5057145;28;20098;-43
2022/10/30 13:54:49;;;;;;;39.78;21.55;;;;;;;;;;5058574;28;20032;-44
2022/10/30 13:57:20;;;;;;;43.15;21.13;;;;;;;;;;5058574;28;20083;-43
2022/10/30 13:59:51;;;;;;;41.10;21.77;;;;;;;;;;5058217;28;20473;-43
2022/10/30 14:02:36;;;;;;;45.55;22.30;;;;;;;;;;5056156;28;20032;-43
2022/10/30 14:05:02;;;;;;;46.67;21.85;;;;;;;;;;5053983;28;20033;-43
2022/10/30 14:07:46;;;;;;;52.10;22.00;;;;;;;;;;5055200;28;20452;-44
2022/10/30 14:10:16;;;;;;;43.95;21.80;;;;;;;;;;5055055;28;20480;-44
2022/10/30 14:12:41;;;;;;;42.17;20.88;;;;;;;;;;5055230;28;20104;-43
2022/10/30 14:15:14;;;;;;;41.97;22.08;;;;;;;;;;5055557;28;20159;-43
2022/10/30 14:17:59;;;;;;;42.40;23.95;;;;;;;;;;5053882;28;20080;-44
2022/10/30 14:20:25;;;;;;;45.92;22.95;;;;;;;;;;5054828;28;20155;-44
2022/10/30 14:23:07;;;;;;;47.47;22.67;;;;;;;;;;5054759;28;20471;-44